Mont Saint Michel — FNMT — position and weather

sailwx.info

Track history (hours):
 
Tides and Currents Weather Stations Pressure Air Temp Water Temp Dewpoint Dewpoint Depression Visibility Wind Speed Wind Dir Waves Ship Positions

Mont Saint Michel

Last reported at 2020-Apr-05 20:00 UTC. Time now 2020-Apr-05 23:16 UTC.
Position N 50°49' W 001°06'.

Length 173 m; beam 29 m.

Type: Ship. MMSI: 227023100.

Date/timePositionNaut miles runAvg speedWind from/ knotsBaromVisibWave heightAir tempDewpointWater temp
2020-Apr-05 20:00N 50°49' W 001°06'2716.0
2020-Apr-05 18:20N 50°24' W 000°51'4218.3
2020-Apr-05 16:01N 49°43' W 000°32'1918.8
2020-Apr-05 15:01N 49°26' W 000°18'816.2
2020-Apr-05 14:30N 49°19' W 000°15'1 2.8
2020-Apr-05 14:00N 49°17' W 000°15'0 0.0
2020-Apr-05 13:30N 49°17' W 000°15'0 0.0
2020-Apr-05 13:00N 49°17' W 000°15'3215.8
2020-Apr-05 11:00N 49°47' W 000°31'5517.9
2020-Apr-05 07:57N 50°39' W 000°60'716.4
2020-Apr-05 07:30N 50°45' W 001°05'4 7.5
2020-Apr-05 07:00N 50°49' W 001°06'0 0.0
2020-Apr-05 06:30N 50°49' W 001°06'43 8.6
2020-Apr-05 01:30N 50°08' W 000°42'2412.0
2020-Apr-04 23:30N 49°46' W 000°29'2315.3
2020-Apr-04 22:00N 49°24' W 000°17'714.1
2020-Apr-04 21:30N 49°17' W 000°15'0 0.0
2020-Apr-04 20:00N 49°17' W 000°15'0 0.0
2020-Apr-04 19:30N 49°17' W 000°15'3413.8
2020-Apr-04 17:01N 49°51' W 000°29'1818.4
2020-Apr-04 16:00N 50°08' W 000°39'2018.9
2020-Apr-04 14:57N 50°27' W 000°50'818.6
2020-Apr-04 14:30N 50°34' W 000°56'917.8
2020-Apr-04 14:00N 50°43' W 000°59'714.4
2020-Apr-04 13:30N 50°48' W 001°07'5 2.4
2020-Apr-04 11:30N 50°44' W 001°03'2416.0
2020-Apr-04 10:00N 50°21' W 000°49'4417.8
2020-Apr-04 07:30N 49°39' W 000°26'16 4.6
2020-Apr-04 04:01N 49°24' W 000°16'1515.4
2020-Apr-04 03:01N 49°39' W 000°26'713.2
2020-Apr-04 02:30N 49°45' W 000°29'1811.8
2020-Apr-04 01:00N 50°00' W 000°42'3915.5
2020-Apr-03 22:30N 50°38' W 000°59'815.4
2020-Apr-03 22:00N 50°44' W 001°05'4 8.6
2020-Apr-03 21:30N 50°49' W 001°06'0 0.0
2020-Apr-03 20:30N 50°49' W 001°06'7 6.8
2020-Apr-03 19:31N 50°42' W 001°02'5518.4
2020-Apr-03 16:30N 49°52' W 000°27'918.2
2020-Apr-03 16:00N 49°43' W 000°25'918.4
2020-Apr-03 15:30N 49°34' W 000°23'17 7.0
2020-Apr-03 13:00N 49°17' W 000°15'2914.7
2020-Apr-03 11:01N 49°45' W 000°29'5518.5
2020-Apr-03 08:00N 50°38' W 000°58'816.7
2020-Apr-03 07:31N 50°45' W 001°05'4 2.7
2020-Apr-03 06:00N 50°49' W 001°06'0 0.2
2020-Apr-03 05:30N 50°49' W 001°06'4 8.4
2020-Apr-03 05:00N 50°45' W 001°05'3513.4
2020-Apr-03 02:26N 50°13' W 000°41'5110.3
2020-Apr-02 21:30N 49°25' W 000°17'5 9.9
2020-Apr-02 21:00N 49°20' W 000°14'3 1.9
2020-Apr-02 19:30N 49°17' W 000°15'2 4.8
2020-Apr-02 19:01N 49°20' W 000°14'816.3
2020-Apr-02 18:30N 49°28' W 000°18'8717.3
2020-Apr-02 13:30N 50°49' W 001°06'1 0.5
2020-Apr-02 12:01N 50°48' W 001°07'4516.5
2020-Apr-02 09:16N 50°07' W 000°39'2318.0
2020-Apr-02 08:00N 49°46' W 000°26'917.9
2020-Apr-02 07:30N 49°37' W 000°21'2110.2
2020-Apr-02 05:30N 49°17' W 000°15'24 8.0
2020-Apr-02 02:30N 49°41' W 000°24'611.3
2020-Apr-02 02:00N 49°46' W 000°26'5812.8
2020-Apr-01 21:30N 50°40' W 000°58'612.6
2020-Apr-01 21:01N 50°45' W 001°05'4 1.6
2020-Apr-01 18:30N 50°49' W 001°06'0 0.2
2020-Apr-01 18:00N 50°49' W 001°06'1110.6
2020-Apr-01 17:01N 50°39' W 000°59'8613.3
2020-Apr-01 10:30N 49°17' W 000°15'0 0.0
2020-Apr-01 08:00N 49°17' W 000°15'0 0.0
2020-Apr-01 07:30N 49°17' W 000°15'9510.0
2020-Mar-31 22:01N 50°47' W 001°06'2 2.2
2020-Mar-31 21:00N 50°49' W 001°06'0 0.0
2020-Mar-31 20:31N 50°49' W 001°06'5814.4
2020-Mar-31 16:30N 49°54' W 000°35'917.9
2020-Mar-31 16:00N 49°46' W 000°30'11 2.3
2020-Mar-31 11:31N 49°37' W 000°23'918.5
2020-Mar-31 11:01N 49°45' W 000°30'1918.5
2020-Mar-31 10:00N 50°02' W 000°40'918.2
2020-Mar-31 09:30N 50°11' W 000°45'1918.6
2020-Mar-31 08:29N 50°28' W 000°55'1717.2
2020-Mar-31 07:31N 50°44' W 001°04'5 4.6
2020-Mar-31 06:30N 50°49' W 001°06'6 4.3
2020-Mar-31 05:00N 50°43' W 001°02'5112.7
2020-Mar-31 01:00N 49°56' W 000°33'1711.2
2020-Mar-30 23:30N 49°40' W 000°25'2010.0
2020-Mar-30 21:30N 49°21' W 000°15'3 6.8
2020-Mar-30 21:00N 49°17' W 000°15'27 7.7
2020-Mar-30 17:30N 49°43' W 000°29'1615.7
2020-Mar-30 16:30N 49°57' W 000°38'3818.9
2020-Mar-30 14:30N 50°33' W 000°57'918.6
2020-Mar-30 14:01N 50°42' W 001°01'7 3.7
2020-Mar-30 12:01N 50°48' W 001°07'5816.6
2020-Mar-30 08:31N 49°54' W 000°34'1019.2
2020-Mar-30 08:01N 49°45' W 000°29'2914.7
2020-Mar-30 06:00N 49°17' W 000°15'0 0.0
2020-Mar-30 05:30N 49°17' W 000°15'0 0.1
2020-Mar-30 04:30N 49°17' W 000°15'4116.5
2020-Mar-30 02:00N 49°57' W 000°31'714.3
2020-Mar-30 01:30N 50°04' W 000°34'4214.0
2020-Mar-29 22:30N 50°43' W 000°60'7 7.0
2020-Mar-29 21:30N 50°49' W 001°06'0 0.0
2020-Mar-29 20:30N 50°49' W 001°06'8 7.7
2020-Mar-29 19:30N 50°42' W 000°59'917.9
2020-Mar-29 19:00N 50°34' W 000°55'1918.6
2020-Mar-29 17:59N 50°16' W 000°44'918.3
2020-Mar-29 17:30N 50°08' W 000°40'1818.0
2020-Mar-29 16:30N 49°51' W 000°32'3517.5
2020-Mar-29 14:30N 49°17' W 000°15'0 0.1
2020-Mar-29 13:30N 49°17' W 000°15'0 0.0
2020-Mar-29 13:00N 49°17' W 000°15'4 7.7
2020-Mar-29 12:30N 49°21' W 000°14'2020.0
2020-Mar-29 11:30N 49°39' W 000°29'4819.1
2020-Mar-29 09:00N 50°24' W 000°54'10 1.7
2020-Mar-29 03:04N 50°16' W 000°44'916.2
2020-Mar-29 02:31N 50°08' W 000°38'3112.4
2020-Mar-29 00:00N 49°39' W 000°23'611.7
2020-Mar-28 23:31N 49°33' W 000°20'16 6.4
2020-Mar-28 21:00N 49°17' W 000°15'12 7.8
2020-Mar-28 19:30N 49°29' W 000°19'7218.1
2020-Mar-28 15:30N 50°36' W 000°58'3 1.0
2020-Mar-28 12:30N 50°39' W 000°59'1019.6
2020-Mar-28 12:00N 50°30' W 000°52'1519.1
2020-Mar-28 11:13N 50°16' W 000°45'5118.6
2020-Mar-28 08:30N 49°29' W 000°19'12 5.8
2020-Mar-28 06:30N 49°17' W 000°15'0 0.0
2020-Mar-28 06:01N 49°17' W 000°15'4013.4
2020-Mar-28 03:01N 49°56' W 000°33'714.0
2020-Mar-28 02:30N 50°03' W 000°36'714.4
2020-Mar-28 02:00N 50°10' W 000°39'1714.4
2020-Mar-28 00:51N 50°25' W 000°49'2611.1
2020-Mar-27 22:30N 50°49' W 001°06'0 0.0
2020-Mar-27 21:30N 50°49' W 001°06'6614.8
2020-Mar-27 17:00N 49°46' W 000°29'1020.5
2020-Mar-27 16:31N 49°37' W 000°24'1020.6
2020-Mar-27 16:00N 49°27' W 000°18'1010.1
2020-Mar-27 15:00N 49°17' W 000°15'3 1.8
2020-Mar-27 13:31N 49°20' W 000°14'1918.5
2020-Mar-27 12:31N 49°37' W 000°24'917.0
2020-Mar-27 12:01N 49°45' W 000°29'2617.5
2020-Mar-27 10:31N 50°09' W 000°45'1419.2
2020-Mar-27 09:48N 50°23' W 000°51'2815.5
2020-Mar-27 08:00N 50°49' W 001°06'5 2.6
2020-Mar-27 06:00N 50°44' W 001°03'3413.6
2020-Mar-27 03:30N 50°12' W 000°44'58 9.6
2020-Mar-26 21:30N 49°17' W 000°15'0 0.0
2020-Mar-26 21:00N 49°17' W 000°15'  
Track history (hours):
 
Tides and Currents Weather Stations Pressure Air Temp Water Temp Dewpoint Dewpoint Depression Visibility Wind Speed Wind Dir Waves Ship Positions

Mont Saint Michel

Last reported at 2020-Apr-05 20:00 UTC. Time now 2020-Apr-05 23:16 UTC.
Position N 50°49' W 001°06'.

Length 173 m; beam 29 m.

Type: Ship. MMSI: 227023100.

Date/timePositionNaut miles runAvg speedWind from/ knotsBaromVisibWave heightAir tempDewpointWater temp
2020-Apr-05 20:00N 50°49' W 001°06'2716.0
2020-Apr-05 18:20N 50°24' W 000°51'4218.3
2020-Apr-05 16:01N 49°43' W 000°32'1918.8
2020-Apr-05 15:01N 49°26' W 000°18'816.2
2020-Apr-05 14:30N 49°19' W 000°15'1 2.8
2020-Apr-05 14:00N 49°17' W 000°15'0 0.0
2020-Apr-05 13:30N 49°17' W 000°15'0 0.0
2020-Apr-05 13:00N 49°17' W 000°15'3215.8
2020-Apr-05 11:00N 49°47' W 000°31'5517.9
2020-Apr-05 07:57N 50°39' W 000°60'716.4
2020-Apr-05 07:30N 50°45' W 001°05'4 7.5
2020-Apr-05 07:00N 50°49' W 001°06'0 0.0
2020-Apr-05 06:30N 50°49' W 001°06'43 8.6
2020-Apr-05 01:30N 50°08' W 000°42'2412.0
2020-Apr-04 23:30N 49°46' W 000°29'2315.3
2020-Apr-04 22:00N 49°24' W 000°17'714.1
2020-Apr-04 21:30N 49°17' W 000°15'0 0.0
2020-Apr-04 20:00N 49°17' W 000°15'0 0.0
2020-Apr-04 19:30N 49°17' W 000°15'3413.8
2020-Apr-04 17:01N 49°51' W 000°29'1818.4
2020-Apr-04 16:00N 50°08' W 000°39'2018.9
2020-Apr-04 14:57N 50°27' W 000°50'818.6
2020-Apr-04 14:30N 50°34' W 000°56'917.8
2020-Apr-04 14:00N 50°43' W 000°59'714.4
2020-Apr-04 13:30N 50°48' W 001°07'5 2.4
2020-Apr-04 11:30N 50°44' W 001°03'2416.0
2020-Apr-04 10:00N 50°21' W 000°49'4417.8
2020-Apr-04 07:30N 49°39' W 000°26'16 4.6
2020-Apr-04 04:01N 49°24' W 000°16'1515.4
2020-Apr-04 03:01N 49°39' W 000°26'713.2
2020-Apr-04 02:30N 49°45' W 000°29'1811.8
2020-Apr-04 01:00N 50°00' W 000°42'3915.5
2020-Apr-03 22:30N 50°38' W 000°59'815.4
2020-Apr-03 22:00N 50°44' W 001°05'4 8.6
2020-Apr-03 21:30N 50°49' W 001°06'0 0.0
2020-Apr-03 20:30N 50°49' W 001°06'7 6.8
2020-Apr-03 19:31N 50°42' W 001°02'5518.4
2020-Apr-03 16:30N 49°52' W 000°27'918.2
2020-Apr-03 16:00N 49°43' W 000°25'918.4
2020-Apr-03 15:30N 49°34' W 000°23'17 7.0
2020-Apr-03 13:00N 49°17' W 000°15'2914.7
2020-Apr-03 11:01N 49°45' W 000°29'5518.5
2020-Apr-03 08:00N 50°38' W 000°58'816.7
2020-Apr-03 07:31N 50°45' W 001°05'4 2.7
2020-Apr-03 06:00N 50°49' W 001°06'0 0.2
2020-Apr-03 05:30N 50°49' W 001°06'4 8.4
2020-Apr-03 05:00N 50°45' W 001°05'3513.4
2020-Apr-03 02:26N 50°13' W 000°41'5110.3
2020-Apr-02 21:30N 49°25' W 000°17'5 9.9
2020-Apr-02 21:00N 49°20' W 000°14'3 1.9
2020-Apr-02 19:30N 49°17' W 000°15'2 4.8
2020-Apr-02 19:01N 49°20' W 000°14'816.3
2020-Apr-02 18:30N 49°28' W 000°18'8717.3
2020-Apr-02 13:30N 50°49' W 001°06'1 0.5
2020-Apr-02 12:01N 50°48' W 001°07'4516.5
2020-Apr-02 09:16N 50°07' W 000°39'2318.0
2020-Apr-02 08:00N 49°46' W 000°26'917.9
2020-Apr-02 07:30N 49°37' W 000°21'2110.2
2020-Apr-02 05:30N 49°17' W 000°15'24 8.0
2020-Apr-02 02:30N 49°41' W 000°24'611.3
2020-Apr-02 02:00N 49°46' W 000°26'5812.8
2020-Apr-01 21:30N 50°40' W 000°58'612.6
2020-Apr-01 21:01N 50°45' W 001°05'4 1.6
2020-Apr-01 18:30N 50°49' W 001°06'0 0.2
2020-Apr-01 18:00N 50°49' W 001°06'1110.6
2020-Apr-01 17:01N 50°39' W 000°59'8613.3
2020-Apr-01 10:30N 49°17' W 000°15'0 0.0
2020-Apr-01 08:00N 49°17' W 000°15'0 0.0
2020-Apr-01 07:30N 49°17' W 000°15'9510.0
2020-Mar-31 22:01N 50°47' W 001°06'2 2.2
2020-Mar-31 21:00N 50°49' W 001°06'0 0.0
2020-Mar-31 20:31N 50°49' W 001°06'5814.4
2020-Mar-31 16:30N 49°54' W 000°35'917.9
2020-Mar-31 16:00N 49°46' W 000°30'11 2.3
2020-Mar-31 11:31N 49°37' W 000°23'918.5
2020-Mar-31 11:01N 49°45' W 000°30'1918.5
2020-Mar-31 10:00N 50°02' W 000°40'918.2
2020-Mar-31 09:30N 50°11' W 000°45'1918.6
2020-Mar-31 08:29N 50°28' W 000°55'1717.2
2020-Mar-31 07:31N 50°44' W 001°04'5 4.6
2020-Mar-31 06:30N 50°49' W 001°06'6 4.3
2020-Mar-31 05:00N 50°43' W 001°02'5112.7
2020-Mar-31 01:00N 49°56' W 000°33'1711.2
2020-Mar-30 23:30N 49°40' W 000°25'2010.0
2020-Mar-30 21:30N 49°21' W 000°15'3 6.8
2020-Mar-30 21:00N 49°17' W 000°15'27 7.7
2020-Mar-30 17:30N 49°43' W 000°29'1615.7
2020-Mar-30 16:30N 49°57' W 000°38'3818.9
2020-Mar-30 14:30N 50°33' W 000°57'918.6
2020-Mar-30 14:01N 50°42' W 001°01'7 3.7
2020-Mar-30 12:01N 50°48' W 001°07'5816.6
2020-Mar-30 08:31N 49°54' W 000°34'1019.2
2020-Mar-30 08:01N 49°45' W 000°29'2914.7
2020-Mar-30 06:00N 49°17' W 000°15'0 0.0
2020-Mar-30 05:30N 49°17' W 000°15'0 0.1
2020-Mar-30 04:30N 49°17' W 000°15'4116.5
2020-Mar-30 02:00N 49°57' W 000°31'714.3
2020-Mar-30 01:30N 50°04' W 000°34'4214.0
2020-Mar-29 22:30N 50°43' W 000°60'7 7.0
2020-Mar-29 21:30N 50°49' W 001°06'0 0.0
2020-Mar-29 20:30N 50°49' W 001°06'8 7.7
2020-Mar-29 19:30N 50°42' W 000°59'917.9
2020-Mar-29 19:00N 50°34' W 000°55'1918.6
2020-Mar-29 17:59N 50°16' W 000°44'918.3
2020-Mar-29 17:30N 50°08' W 000°40'1818.0
2020-Mar-29 16:30N 49°51' W 000°32'3517.5
2020-Mar-29 14:30N 49°17' W 000°15'0 0.1
2020-Mar-29 13:30N 49°17' W 000°15'0 0.0
2020-Mar-29 13:00N 49°17' W 000°15'4 7.7
2020-Mar-29 12:30N 49°21' W 000°14'2020.0
2020-Mar-29 11:30N 49°39' W 000°29'4819.1
2020-Mar-29 09:00N 50°24' W 000°54'10 1.7
2020-Mar-29 03:04N 50°16' W 000°44'916.2
2020-Mar-29 02:31N 50°08' W 000°38'3112.4
2020-Mar-29 00:00N 49°39' W 000°23'611.7
2020-Mar-28 23:31N 49°33' W 000°20'16 6.4
2020-Mar-28 21:00N 49°17' W 000°15'12 7.8
2020-Mar-28 19:30N 49°29' W 000°19'7218.1
2020-Mar-28 15:30N 50°36' W 000°58'3 1.0
2020-Mar-28 12:30N 50°39' W 000°59'1019.6
2020-Mar-28 12:00N 50°30' W 000°52'1519.1
2020-Mar-28 11:13N 50°16' W 000°45'5118.6
2020-Mar-28 08:30N 49°29' W 000°19'12 5.8
2020-Mar-28 06:30N 49°17' W 000°15'0 0.0
2020-Mar-28 06:01N 49°17' W 000°15'4013.4
2020-Mar-28 03:01N 49°56' W 000°33'714.0
2020-Mar-28 02:30N 50°03' W 000°36'714.4
2020-Mar-28 02:00N 50°10' W 000°39'1714.4
2020-Mar-28 00:51N 50°25' W 000°49'2611.1
2020-Mar-27 22:30N 50°49' W 001°06'0 0.0
2020-Mar-27 21:30N 50°49' W 001°06'6614.8
2020-Mar-27 17:00N 49°46' W 000°29'1020.5
2020-Mar-27 16:31N 49°37' W 000°24'1020.6
2020-Mar-27 16:00N 49°27' W 000°18'1010.1
2020-Mar-27 15:00N 49°17' W 000°15'3 1.8
2020-Mar-27 13:31N 49°20' W 000°14'1918.5
2020-Mar-27 12:31N 49°37' W 000°24'917.0
2020-Mar-27 12:01N 49°45' W 000°29'2617.5
2020-Mar-27 10:31N 50°09' W 000°45'1419.2
2020-Mar-27 09:48N 50°23' W 000°51'2815.5
2020-Mar-27 08:00N 50°49' W 001°06'5 2.6
2020-Mar-27 06:00N 50°44' W 001°03'3413.6
2020-Mar-27 03:30N 50°12' W 000°44'58 9.6
2020-Mar-26 21:30N 49°17' W 000°15'0 0.0
2020-Mar-26 21:00N 49°17' W 000°15'  

Dump ship's entire track history